This is the latest recevied weather packets stored in our database for station/object KC5EZZ-2. If no packets are shown the sender has not sent any weather packets the latest 10 day(s).
| Time | Temp. | Humidity | Pressure | Rain* | Wind** | Luminosity | Snow |
|---|---|---|---|---|---|---|---|
| 1777587432 | 15.56° C | - | - | 0 mm | 3.13 m/s, 353° | - | - |
| 1777586833 | 15° C | - | - | 0 mm | 3.58 m/s, 353° | - | - |
| 1777586530 | 15° C | - | - | 0 mm | 4.02 m/s, 350° | - | - |
| 1777586231 | 15.56° C | - | - | 0 mm | 3.13 m/s, 6° | - | - |
| 1777585932 | 15° C | - | - | 0 mm | 4.47 m/s, 345° | - | - |
| 1777585701 | 15° C | - | - | 0 mm | 4.47 m/s, 319° | - | - |
| 1777585629 | 15° C | - | - | 0 mm | 4.47 m/s, 319° | - | - |
| 1777585558 | 15° C | - | - | 0 mm | 4.47 m/s, 343° | - | - |
| 1777585330 | 15° C | - | - | 0 mm | 4.47 m/s, 343° | - | - |
| 1777585030 | 15° C | - | - | 0 mm | 4.47 m/s, 357° | - | - |
| 1777584728 | 15° C | - | - | 0 mm | 4.02 m/s, 345° | - | - |
| 1777584429 | 15° C | - | - | 0 mm | 4.47 m/s, 347° | - | - |
| 1777584129 | 15° C | - | - | 0 mm | 4.92 m/s, 345° | - | - |
| 1777583827 | 15° C | - | - | 0 mm | 4.92 m/s, 329° | - | - |
| 1777583527 | 15.56° C | - | - | 0 mm | 4.02 m/s, 330° | - | - |
| 1777583228 | 15.56° C | - | - | 0 mm | 3.58 m/s, 336° | - | - |
| 1777582925 | 15.56° C | - | - | 0 mm | 3.58 m/s, 345° | - | - |
| 1777582625 | 15.56° C | - | - | 0 mm | 4.92 m/s, 332° | - | - |
| 1777582325 | 16.11° C | - | - | 0 mm | 4.47 m/s, 359° | - | - |
| 1777582023 | 16.11° C | - | - | 0 mm | 3.13 m/s, 1° | - | - |
| 1777581724 | 16.11° C | - | - | 0 mm | 4.47 m/s, 345° | - | - |
| 1777581424 | 16.11° C | - | - | 0 mm | 4.02 m/s, 359° | - | - |
| 1777581122 | 16.11° C | - | - | 0 mm | 4.02 m/s, 329° | - | - |
| 1777580822 | 16.11° C | - | - | 0 mm | 4.92 m/s, 343° | - | - |
| 1777580523 | 16.11° C | - | - | 0 mm | 4.47 m/s, 332° | - | - |
* Rain latest hour (hover to see other rain measurements)
** Current wind speed in m/s (hover to see current wind gust speed)